sensor_id;sensor_type;location;lat;lon;timestamp;pressure;altitude;pressure_sealevel;temperature
42119;BMP280;27783;42.782;23.274;2023-07-31T00:01:19;95174.59;;;20.93
42119;BMP280;27783;42.782;23.274;2023-07-31T00:03:46;95176.69;;;20.89
42119;BMP280;27783;42.782;23.274;2023-07-31T00:06:13;95180.56;;;20.88
42119;BMP280;27783;42.782;23.274;2023-07-31T00:08:39;95176.63;;;20.98
42119;BMP280;27783;42.782;23.274;2023-07-31T00:11:04;95177.66;;;21.09
42119;BMP280;27783;42.782;23.274;2023-07-31T00:13:30;95177.31;;;20.85
42119;BMP280;27783;42.782;23.274;2023-07-31T00:15:55;95178.78;;;20.54
42119;BMP280;27783;42.782;23.274;2023-07-31T00:18:21;95168.94;;;20.60
42119;BMP280;27783;42.782;23.274;2023-07-31T00:20:49;95165.03;;;20.70
42119;BMP280;27783;42.782;23.274;2023-07-31T00:23:21;95163.16;;;20.53
42119;BMP280;27783;42.782;23.274;2023-07-31T00:25:47;95167.28;;;20.62
42119;BMP280;27783;42.782;23.274;2023-07-31T00:28:12;95166.78;;;20.41
42119;BMP280;27783;42.782;23.274;2023-07-31T00:30:39;95155.75;;;20.48
42119;BMP280;27783;42.782;23.274;2023-07-31T00:33:05;95153.84;;;20.71
42119;BMP280;27783;42.782;23.274;2023-07-31T00:35:31;95147.97;;;20.58
42119;BMP280;27783;42.782;23.274;2023-07-31T00:38:05;95147.97;;;20.58
42119;BMP280;27783;42.782;23.274;2023-07-31T00:40:37;95148.81;;;20.33
42119;BMP280;27783;42.782;23.274;2023-07-31T00:43:21;95150.22;;;20.51
42119;BMP280;27783;42.782;23.274;2023-07-31T00:45:48;95154.00;;;20.36
42119;BMP280;27783;42.782;23.274;2023-07-31T00:48:15;95146.09;;;20.41
42119;BMP280;27783;42.782;23.274;2023-07-31T00:50:41;95155.88;;;20.53
42119;BMP280;27783;42.782;23.274;2023-07-31T00:53:07;95145.22;;;20.44
42119;BMP280;27783;42.782;23.274;2023-07-31T00:55:33;95146.59;;;20.31
42119;BMP280;27783;42.782;23.274;2023-07-31T00:58:00;95142.84;;;20.29
42119;BMP280;27783;42.782;23.274;2023-07-31T01:00:26;95135.41;;;20.33
42119;BMP280;27783;42.782;23.274;2023-07-31T01:02:53;95135.00;;;20.17
42119;BMP280;27783;42.782;23.274;2023-07-31T01:11:30;95140.41;;;19.90
42119;BMP280;27783;42.782;23.274;2023-07-31T01:13:55;95139.91;;;20.09
42119;BMP280;27783;42.782;23.274;2023-07-31T01:16:25;95136.25;;;19.89
42119;BMP280;27783;42.782;23.274;2023-07-31T01:18:51;95129.00;;;19.64
42119;BMP280;27783;42.782;23.274;2023-07-31T01:21:47;95125.09;;;19.82
42119;BMP280;27783;42.782;23.274;2023-07-31T01:24:28;95121.84;;;19.69
42119;BMP280;27783;42.782;23.274;2023-07-31T01:27:04;95129.44;;;19.71
42119;BMP280;27783;42.782;23.274;2023-07-31T01:32:11;95128.41;;;19.77
42119;BMP280;27783;42.782;23.274;2023-07-31T01:34:52;95118.44;;;19.69
42119;BMP280;27783;42.782;23.274;2023-07-31T01:37:18;95120.84;;;19.58
42119;BMP280;27783;42.782;23.274;2023-07-31T01:39:51;95119.06;;;19.64
42119;BMP280;27783;42.782;23.274;2023-07-31T01:42:18;95126.44;;;19.43
42119;BMP280;27783;42.782;23.274;2023-07-31T01:44:49;95128.53;;;19.39
42119;BMP280;27783;42.782;23.274;2023-07-31T01:47:15;95129.72;;;19.47
42119;BMP280;27783;42.782;23.274;2023-07-31T01:49:41;95126.75;;;19.19
42119;BMP280;27783;42.782;23.274;2023-07-31T01:52:08;95133.75;;;19.42
42119;BMP280;27783;42.782;23.274;2023-07-31T01:54:34;95130.63;;;19.44
42119;BMP280;27783;42.782;23.274;2023-07-31T01:57:05;95134.50;;;19.52
42119;BMP280;27783;42.782;23.274;2023-07-31T01:59:33;95134.06;;;19.62
42119;BMP280;27783;42.782;23.274;2023-07-31T02:02:02;95134.94;;;19.41
42119;BMP280;27783;42.782;23.274;2023-07-31T02:04:27;95135.41;;;19.57
42119;BMP280;27783;42.782;23.274;2023-07-31T02:06:57;95139.09;;;19.60
42119;BMP280;27783;42.782;23.274;2023-07-31T02:09:22;95126.78;;;19.53
42119;BMP280;27783;42.782;23.274;2023-07-31T02:11:47;95137.03;;;19.55
42119;BMP280;27783;42.782;23.274;2023-07-31T02:14:14;95131.81;;;19.60
42119;BMP280;27783;42.782;23.274;2023-07-31T02:16:40;95140.28;;;19.68
42119;BMP280;27783;42.782;23.274;2023-07-31T02:19:07;95129.44;;;19.62
42119;BMP280;27783;42.782;23.274;2023-07-31T02:21:33;95131.25;;;19.65
42119;BMP280;27783;42.782;23.274;2023-07-31T02:23:59;95129.13;;;19.69
42119;BMP280;27783;42.782;23.274;2023-07-31T02:26:31;95132.09;;;19.62
42119;BMP280;27783;42.782;23.274;2023-07-31T02:28:57;95117.72;;;19.69
42119;BMP280;27783;42.782;23.274;2023-07-31T02:31:25;95127.66;;;19.77
42119;BMP280;27783;42.782;23.274;2023-07-31T02:33:50;95129.28;;;19.74
42119;BMP280;27783;42.782;23.274;2023-07-31T02:36:15;95146.53;;;19.73
42119;BMP280;27783;42.782;23.274;2023-07-31T02:38:42;95133.31;;;19.70
42119;BMP280;27783;42.782;23.274;2023-07-31T02:41:09;95138.38;;;19.68
42119;BMP280;27783;42.782;23.274;2023-07-31T02:43:36;95145.19;;;19.78
42119;BMP280;27783;42.782;23.274;2023-07-31T02:46:02;95155.00;;;19.81
42119;BMP280;27783;42.782;23.274;2023-07-31T02:48:29;95161.97;;;19.78
42119;BMP280;27783;42.782;23.274;2023-07-31T02:51:00;95165.84;;;19.69
42119;BMP280;27783;42.782;23.274;2023-07-31T02:53:25;95170.13;;;19.84
42119;BMP280;27783;42.782;23.274;2023-07-31T02:55:50;95156.75;;;20.01
42119;BMP280;27783;42.782;23.274;2023-07-31T02:58:16;95165.63;;;20.16
42119;BMP280;27783;42.782;23.274;2023-07-31T03:00:43;95165.31;;;20.22
42119;BMP280;27783;42.782;23.274;2023-07-31T03:03:09;95171.28;;;20.18
42119;BMP280;27783;42.782;23.274;2023-07-31T03:05:34;95171.56;;;20.19
42119;BMP280;27783;42.782;23.274;2023-07-31T03:08:01;95173.50;;;20.28
42119;BMP280;27783;42.782;23.274;2023-07-31T03:10:27;95172.75;;;20.27
42119;BMP280;27783;42.782;23.274;2023-07-31T03:12:52;95180.19;;;20.32
42119;BMP280;27783;42.782;23.274;2023-07-31T03:15:19;95165.19;;;20.17
42119;BMP280;27783;42.782;23.274;2023-07-31T03:17:44;95172.00;;;20.27
42119;BMP280;27783;42.782;23.274;2023-07-31T03:20:11;95173.19;;;20.26
42119;BMP280;27783;42.782;23.274;2023-07-31T03:22:40;95176.47;;;20.21
42119;BMP280;27783;42.782;23.274;2023-07-31T03:25:07;95177.66;;;20.37
42119;BMP280;27783;42.782;23.274;2023-07-31T03:27:35;95176.00;;;20.40
42119;BMP280;27783;42.782;23.274;2023-07-31T03:30:22;95176.44;;;20.38
42119;BMP280;27783;42.782;23.274;2023-07-31T03:32:49;95182.00;;;20.18
42119;BMP280;27783;42.782;23.274;2023-07-31T03:35:14;95180.66;;;20.31
42119;BMP280;27783;42.782;23.274;2023-07-31T03:37:41;95180.94;;;20.15
42119;BMP280;27783;42.782;23.274;2023-07-31T03:40:08;95184.06;;;20.14
42119;BMP280;27783;42.782;23.274;2023-07-31T03:42:33;95191.50;;;20.10
42119;BMP280;27783;42.782;23.274;2023-07-31T03:44:59;95192.09;;;20.05
42119;BMP280;27783;42.782;23.274;2023-07-31T03:47:45;95200.56;;;20.30
42119;BMP280;27783;42.782;23.274;2023-07-31T03:50:13;95201.44;;;20.27
42119;BMP280;27783;42.782;23.274;2023-07-31T03:52:41;95196.84;;;20.27
42119;BMP280;27783;42.782;23.274;2023-07-31T03:55:06;95196.25;;;20.32
42119;BMP280;27783;42.782;23.274;2023-07-31T03:57:32;95201.88;;;20.43
42119;BMP280;27783;42.782;23.274;2023-07-31T03:59:58;95204.56;;;20.43
42119;BMP280;27783;42.782;23.274;2023-07-31T04:02:23;95206.47;;;20.42
42119;BMP280;27783;42.782;23.274;2023-07-31T04:04:51;95209.63;;;20.41
42119;BMP280;27783;42.782;23.274;2023-07-31T04:07:18;95210.50;;;20.47
42119;BMP280;27783;42.782;23.274;2023-07-31T04:09:46;95214.47;;;20.51
42119;BMP280;27783;42.782;23.274;2023-07-31T04:12:11;95204.06;;;20.53
42119;BMP280;27783;42.782;23.274;2023-07-31T04:14:41;95199.75;;;20.55
42119;BMP280;27783;42.782;23.274;2023-07-31T04:17:06;95199.00;;;20.64
42119;BMP280;27783;42.782;23.274;2023-07-31T04:19:35;95203.53;;;20.40
42119;BMP280;27783;42.782;23.274;2023-07-31T04:22:22;95216.13;;;20.57
42119;BMP280;27783;42.782;23.274;2023-07-31T04:24:50;95208.41;;;20.51
42119;BMP280;27783;42.782;23.274;2023-07-31T04:27:21;95209.28;;;20.56
42119;BMP280;27783;42.782;23.274;2023-07-31T04:29:46;95213.09;;;20.64
42119;BMP280;27783;42.782;23.274;2023-07-31T04:32:12;95221.75;;;20.59
42119;BMP280;27783;42.782;23.274;2023-07-31T04:34:40;95215.22;;;20.60
42119;BMP280;27783;42.782;23.274;2023-07-31T04:37:06;95216.13;;;20.57
42119;BMP280;27783;42.782;23.274;2023-07-31T04:39:31;95207.47;;;20.62
42119;BMP280;27783;42.782;23.274;2023-07-31T04:41:56;95207.19;;;20.60
42119;BMP280;27783;42.782;23.274;2023-07-31T04:44:22;95214.31;;;20.54
42119;BMP280;27783;42.782;23.274;2023-07-31T04:46:47;95203.28;;;20.61
42119;BMP280;27783;42.782;23.274;2023-07-31T04:49:12;95211.16;;;20.65
42119;BMP280;27783;42.782;23.274;2023-07-31T04:51:38;95200.91;;;20.63
42119;BMP280;27783;42.782;23.274;2023-07-31T04:54:03;95202.66;;;20.75
42119;BMP280;27783;42.782;23.274;2023-07-31T04:56:29;95194.09;;;20.94
42119;BMP280;27783;42.782;23.274;2023-07-31T04:58:54;95192.41;;;21.05
42119;BMP280;27783;42.782;23.274;2023-07-31T05:01:20;95205.75;;;21.14
42119;BMP280;27783;42.782;23.274;2023-07-31T05:03:45;95199.63;;;21.22
42119;BMP280;27783;42.782;23.274;2023-07-31T05:06:11;95201.47;;;21.39
42119;BMP280;27783;42.782;23.274;2023-07-31T05:08:37;95200.19;;;21.49
42119;BMP280;27783;42.782;23.274;2023-07-31T05:11:02;95194.50;;;21.70
42119;BMP280;27783;42.782;23.274;2023-07-31T05:13:28;95195.78;;;21.60
42119;BMP280;27783;42.782;23.274;2023-07-31T05:15:53;95196.56;;;21.74
42119;BMP280;27783;42.782;23.274;2023-07-31T05:18:19;95194.06;;;21.71
42119;BMP280;27783;42.782;23.274;2023-07-31T05:20:44;95196.69;;;21.80
42119;BMP280;27783;42.782;23.274;2023-07-31T05:23:09;95189.88;;;21.79
42119;BMP280;27783;42.782;23.274;2023-07-31T05:25:35;95186.28;;;22.10
42119;BMP280;27783;42.782;23.274;2023-07-31T05:28:00;95191.97;;;22.12
42119;BMP280;27783;42.782;23.274;2023-07-31T05:30:26;95189.44;;;22.22
42119;BMP280;27783;42.782;23.274;2023-07-31T05:32:51;95199.28;;;22.39
42119;BMP280;27783;42.782;23.274;2023-07-31T05:35:17;95196.47;;;22.06
42119;BMP280;27783;42.782;23.274;2023-07-31T05:37:42;95201.28;;;22.16
42119;BMP280;27783;42.782;23.274;2023-07-31T05:40:08;95192.03;;;22.03
42119;BMP280;27783;42.782;23.274;2023-07-31T05:42:33;95197.69;;;22.19
42119;BMP280;27783;42.782;23.274;2023-07-31T05:44:59;95200.16;;;21.94
42119;BMP280;27783;42.782;23.274;2023-07-31T05:47:25;95185.91;;;22.03
42119;BMP280;27783;42.782;23.274;2023-07-31T05:49:50;95196.03;;;22.21
42119;BMP280;27783;42.782;23.274;2023-07-31T05:52:18;95193.91;;;22.25
42119;BMP280;27783;42.782;23.274;2023-07-31T05:54:44;95192.97;;;22.85
42119;BMP280;27783;42.782;23.274;2023-07-31T05:57:11;95192.16;;;23.26
42119;BMP280;27783;42.782;23.274;2023-07-31T05:59:36;95193.84;;;23.10
42119;BMP280;27783;42.782;23.274;2023-07-31T06:02:02;95203.78;;;23.04
42119;BMP280;27783;42.782;23.274;2023-07-31T06:04:27;95202.56;;;23.19
42119;BMP280;27783;42.782;23.274;2023-07-31T06:06:53;95208.97;;;23.41
42119;BMP280;27783;42.782;23.274;2023-07-31T06:09:19;95209.81;;;22.99
42119;BMP280;27783;42.782;23.274;2023-07-31T06:11:45;95199.34;;;23.01
42119;BMP280;27783;42.782;23.274;2023-07-31T06:14:11;95195.16;;;23.00
42119;BMP280;27783;42.782;23.274;2023-07-31T06:16:36;95215.38;;;23.43
42119;BMP280;27783;42.782;23.274;2023-07-31T06:19:02;95215.56;;;23.21
42119;BMP280;27783;42.782;23.274;2023-07-31T06:21:27;95208.75;;;23.25
42119;BMP280;27783;42.782;23.274;2023-07-31T06:23:53;95216.56;;;23.23
42119;BMP280;27783;42.782;23.274;2023-07-31T06:26:18;95212.81;;;22.87
42119;BMP280;27783;42.782;23.274;2023-07-31T06:28:44;95210.38;;;23.03
42119;BMP280;27783;42.782;23.274;2023-07-31T06:31:09;95213.78;;;23.04
42119;BMP280;27783;42.782;23.274;2023-07-31T06:33:35;95215.97;;;23.33
42119;BMP280;27783;42.782;23.274;2023-07-31T06:36:00;95231.69;;;23.06
42119;BMP280;27783;42.782;23.274;2023-07-31T06:38:26;95227.75;;;23.55
42119;BMP280;27783;42.782;23.274;2023-07-31T06:40:52;95225.25;;;23.32
42119;BMP280;27783;42.782;23.274;2023-07-31T06:43:17;95212.91;;;23.59
42119;BMP280;27783;42.782;23.274;2023-07-31T06:45:43;95215.06;;;23.94
42119;BMP280;27783;42.782;23.274;2023-07-31T06:48:09;95222.97;;;23.84
42119;BMP280;27783;42.782;23.274;2023-07-31T06:50:34;95211.88;;;24.15
42119;BMP280;27783;42.782;23.274;2023-07-31T06:53:00;95208.22;;;24.43
42119;BMP280;27783;42.782;23.274;2023-07-31T06:55:25;95208.88;;;24.33
42119;BMP280;27783;42.782;23.274;2023-07-31T06:57:53;95205.13;;;24.74
42119;BMP280;27783;42.782;23.274;2023-07-31T07:00:19;95206.59;;;24.75
42119;BMP280;27783;42.782;23.274;2023-07-31T07:02:45;95212.56;;;24.85
42119;BMP280;27783;42.782;23.274;2023-07-31T07:05:15;95212.84;;;24.62
42119;BMP280;27783;42.782;23.274;2023-07-31T07:07:40;95201.91;;;25.06
42119;BMP280;27783;42.782;23.274;2023-07-31T07:10:06;95211.69;;;24.98
42119;BMP280;27783;42.782;23.274;2023-07-31T07:12:33;95204.41;;;24.79
42119;BMP280;27783;42.782;23.274;2023-07-31T07:14:59;95187.41;;;25.28
42119;BMP280;27783;42.782;23.274;2023-07-31T07:17:25;95205.81;;;25.35
42119;BMP280;27783;42.782;23.274;2023-07-31T07:19:51;95202.72;;;25.12
42119;BMP280;27783;42.782;23.274;2023-07-31T07:22:17;95194.19;;;25.65
42119;BMP280;27783;42.782;23.274;2023-07-31T07:24:43;95191.69;;;25.51
42119;BMP280;27783;42.782;23.274;2023-07-31T07:27:08;95197.50;;;25.85
42119;BMP280;27783;42.782;23.274;2023-07-31T07:29:34;95206.91;;;25.54
42119;BMP280;27783;42.782;23.274;2023-07-31T07:32:00;95183.28;;;25.84
42119;BMP280;27783;42.782;23.274;2023-07-31T07:34:26;95186.06;;;25.59
42119;BMP280;27783;42.782;23.274;2023-07-31T07:36:52;95192.91;;;25.50
42119;BMP280;27783;42.782;23.274;2023-07-31T07:39:18;95196.47;;;26.44
42119;BMP280;27783;42.782;23.274;2023-07-31T07:41:43;95198.81;;;26.05
42119;BMP280;27783;42.782;23.274;2023-07-31T07:44:08;95198.47;;;26.87
42119;BMP280;27783;42.782;23.274;2023-07-31T07:46:34;95193.44;;;26.21
42119;BMP280;27783;42.782;23.274;2023-07-31T07:48:59;95209.75;;;26.48
42119;BMP280;27783;42.782;23.274;2023-07-31T07:51:25;95194.06;;;26.89
42119;BMP280;27783;42.782;23.274;2023-07-31T07:53:50;95199.22;;;27.19
42119;BMP280;27783;42.782;23.274;2023-07-31T07:56:16;95199.22;;;26.66
42119;BMP280;27783;42.782;23.274;2023-07-31T07:58:41;95202.66;;;27.14
42119;BMP280;27783;42.782;23.274;2023-07-31T08:01:07;95206.34;;;26.79
42119;BMP280;27783;42.782;23.274;2023-07-31T08:03:32;95196.75;;;27.00
42119;BMP280;27783;42.782;23.274;2023-07-31T08:05:59;95207.81;;;27.18
42119;BMP280;27783;42.782;23.274;2023-07-31T08:08:25;95197.72;;;27.24
42119;BMP280;27783;42.782;23.274;2023-07-31T08:10:51;95201.84;;;27.46
42119;BMP280;27783;42.782;23.274;2023-07-31T08:13:16;95205.13;;;27.07
42119;BMP280;27783;42.782;23.274;2023-07-31T08:15:42;95207.34;;;27.19
42119;BMP280;27783;42.782;23.274;2023-07-31T08:18:08;95210.81;;;27.09
42119;BMP280;27783;42.782;23.274;2023-07-31T08:20:34;95208.31;;;26.90
42119;BMP280;27783;42.782;23.274;2023-07-31T08:22:59;95205.59;;;27.38
42119;BMP280;27783;42.782;23.274;2023-07-31T08:25:25;95195.34;;;27.92
42119;BMP280;27783;42.782;23.274;2023-07-31T08:27:50;95201.84;;;27.67
42119;BMP280;27783;42.782;23.274;2023-07-31T08:30:18;95200.88;;;27.65
42119;BMP280;27783;42.782;23.274;2023-07-31T08:32:43;95194.00;;;27.48
42119;BMP280;27783;42.782;23.274;2023-07-31T08:35:09;95191.09;;;28.07
42119;BMP280;27783;42.782;23.274;2023-07-31T08:37:34;95196.03;;;28.03
42119;BMP280;27783;42.782;23.274;2023-07-31T08:40:00;95190.38;;;28.51
42119;BMP280;27783;42.782;23.274;2023-07-31T08:42:25;95188.47;;;28.75
42119;BMP280;27783;42.782;23.274;2023-07-31T08:44:52;95187.94;;;28.47
42119;BMP280;27783;42.782;23.274;2023-07-31T08:47:19;95188.94;;;28.84
42119;BMP280;27783;42.782;23.274;2023-07-31T08:49:46;95185.31;;;28.31
42119;BMP280;27783;42.782;23.274;2023-07-31T08:52:12;95192.53;;;28.18
42119;BMP280;27783;42.782;23.274;2023-07-31T08:54:38;95178.66;;;28.72
42119;BMP280;27783;42.782;23.274;2023-07-31T08:57:05;95186.41;;;28.52
42119;BMP280;27783;42.782;23.274;2023-07-31T08:59:31;95181.28;;;27.98
42119;BMP280;27783;42.782;23.274;2023-07-31T09:02:05;95175.00;;;29.27
42119;BMP280;27783;42.782;23.274;2023-07-31T09:04:31;95186.28;;;29.07
42119;BMP280;27783;42.782;23.274;2023-07-31T09:07:00;95170.56;;;29.24
42119;BMP280;27783;42.782;23.274;2023-07-31T09:09:26;95177.41;;;28.73
42119;BMP280;27783;42.782;23.274;2023-07-31T09:11:52;95166.34;;;28.99
42119;BMP280;27783;42.782;23.274;2023-07-31T09:14:18;95172.97;;;29.32
42119;BMP280;27783;42.782;23.274;2023-07-31T09:16:57;95175.66;;;28.75
42119;BMP280;27783;42.782;23.274;2023-07-31T09:19:26;95170.41;;;28.48
42119;BMP280;27783;42.782;23.274;2023-07-31T09:21:52;95165.69;;;28.54
42119;BMP280;27783;42.782;23.274;2023-07-31T09:24:31;95159.34;;;27.96
42119;BMP280;27783;42.782;23.274;2023-07-31T09:26:58;95156.31;;;29.64
42119;BMP280;27783;42.782;23.274;2023-07-31T09:29:25;95155.31;;;29.15
42119;BMP280;27783;42.782;23.274;2023-07-31T09:31:52;95158.72;;;29.21
42119;BMP280;27783;42.782;23.274;2023-07-31T09:34:18;95155.03;;;28.27
42119;BMP280;27783;42.782;23.274;2023-07-31T09:36:45;95154.53;;;29.20
42119;BMP280;27783;42.782;23.274;2023-07-31T09:39:12;95155.31;;;29.15
42119;BMP280;27783;42.782;23.274;2023-07-31T09:41:42;95146.00;;;29.34
42119;BMP280;27783;42.782;23.274;2023-07-31T09:44:08;95148.75;;;29.76
42119;BMP280;27783;42.782;23.274;2023-07-31T09:46:37;95141.22;;;29.87
42119;BMP280;27783;42.782;23.274;2023-07-31T09:49:11;95145.44;;;30.06
42119;BMP280;27783;42.782;23.274;2023-07-31T09:51:41;95144.38;;;28.97
42119;BMP280;27783;42.782;23.274;2023-07-31T09:54:17;95144.84;;;28.73
42119;BMP280;27783;42.782;23.274;2023-07-31T09:56:44;95152.84;;;28.55
42119;BMP280;27783;42.782;23.274;2023-07-31T09:59:14;95144.16;;;28.61
42119;BMP280;27783;42.782;23.274;2023-07-31T10:01:40;95143.28;;;28.48
42119;BMP280;27783;42.782;23.274;2023-07-31T10:04:08;95137.69;;;28.36
42119;BMP280;27783;42.782;23.274;2023-07-31T10:06:35;95141.94;;;28.31
42119;BMP280;27783;42.782;23.274;2023-07-31T10:09:11;95130.38;;;29.17
42119;BMP280;27783;42.782;23.274;2023-07-31T10:12:00;95139.50;;;28.28
42119;BMP280;27783;42.782;23.274;2023-07-31T10:14:27;95136.97;;;29.27
42119;BMP280;27783;42.782;23.274;2023-07-31T10:16:54;95136.28;;;28.92
42119;BMP280;27783;42.782;23.274;2023-07-31T10:19:21;95122.72;;;28.63
42119;BMP280;27783;42.782;23.274;2023-07-31T10:21:48;95136.00;;;28.95
42119;BMP280;27783;42.782;23.274;2023-07-31T10:24:14;95130.59;;;28.95
42119;BMP280;27783;42.782;23.274;2023-07-31T10:26:41;95131.94;;;28.84
42119;BMP280;27783;42.782;23.274;2023-07-31T10:29:06;95129.72;;;28.09
42119;BMP280;27783;42.782;23.274;2023-07-31T10:31:32;95129.06;;;29.00
42119;BMP280;27783;42.782;23.274;2023-07-31T10:33:59;95128.34;;;28.37
42119;BMP280;27783;42.782;23.274;2023-07-31T10:36:26;95117.91;;;28.80
42119;BMP280;27783;42.782;23.274;2023-07-31T10:38:52;95115.34;;;29.16
42119;BMP280;27783;42.782;23.274;2023-07-31T10:41:17;95119.59;;;28.54
42119;BMP280;27783;42.782;23.274;2023-07-31T10:43:46;95109.72;;;28.85
42119;BMP280;27783;42.782;23.274;2023-07-31T10:46:12;95102.88;;;29.90
42119;BMP280;27783;42.782;23.274;2023-07-31T10:48:40;95109.50;;;29.53
42119;BMP280;27783;42.782;23.274;2023-07-31T10:51:12;95097.81;;;30.17
42119;BMP280;27783;42.782;23.274;2023-07-31T10:53:39;95090.00;;;30.27
42119;BMP280;27783;42.782;23.274;2023-07-31T10:56:09;95097.06;;;30.17
42119;BMP280;27783;42.782;23.274;2023-07-31T10:58:39;95104.31;;;31.19
42119;BMP280;27783;42.782;23.274;2023-07-31T11:01:05;95091.88;;;30.49
42119;BMP280;27783;42.782;23.274;2023-07-31T11:03:47;95088.25;;;30.60
42119;BMP280;27783;42.782;23.274;2023-07-31T11:06:17;95098.56;;;30.79
42119;BMP280;27783;42.782;23.274;2023-07-31T11:08:44;95086.00;;;31.45
42119;BMP280;27783;42.782;23.274;2023-07-31T11:11:15;95095.28;;;30.98
42119;BMP280;27783;42.782;23.274;2023-07-31T11:13:47;95087.44;;;31.71
42119;BMP280;27783;42.782;23.274;2023-07-31T11:16:22;95085.38;;;31.64
42119;BMP280;27783;42.782;23.274;2023-07-31T11:18:48;95088.00;;;30.27
42119;BMP280;27783;42.782;23.274;2023-07-31T11:21:19;95092.59;;;30.68
42119;BMP280;27783;42.782;23.274;2023-07-31T11:23:47;95092.69;;;31.18
42119;BMP280;27783;42.782;23.274;2023-07-31T11:26:14;95092.91;;;31.08
42119;BMP280;27783;42.782;23.274;2023-07-31T11:28:39;95089.47;;;30.46
42119;BMP280;27783;42.782;23.274;2023-07-31T11:31:09;95090.94;;;30.47
42119;BMP280;27783;42.782;23.274;2023-07-31T11:33:34;95085.06;;;31.42
42119;BMP280;27783;42.782;23.274;2023-07-31T11:36:00;95080.44;;;31.25
42119;BMP280;27783;42.782;23.274;2023-07-31T11:40:53;95083.59;;;31.41
42119;BMP280;27783;42.782;23.274;2023-07-31T11:43:20;95081.16;;;31.00
42119;BMP280;27783;42.782;23.274;2023-07-31T11:45:50;95071.41;;;31.80
42119;BMP280;27783;42.782;23.274;2023-07-31T11:48:27;95065.03;;;31.27
42119;BMP280;27783;42.782;23.274;2023-07-31T11:50:57;95063.00;;;31.78
42119;BMP280;27783;42.782;23.274;2023-07-31T11:53:42;95066.38;;;31.08
42119;BMP280;27783;42.782;23.274;2023-07-31T11:56:10;95066.41;;;30.65
42119;BMP280;27783;42.782;23.274;2023-07-31T11:58:38;95069.13;;;31.21
42119;BMP280;27783;42.782;23.274;2023-07-31T12:01:05;95064.81;;;30.57
42119;BMP280;27783;42.782;23.274;2023-07-31T12:03:31;95066.59;;;30.97
42119;BMP280;27783;42.782;23.274;2023-07-31T12:05:58;95061.91;;;30.98
42119;BMP280;27783;42.782;23.274;2023-07-31T12:08:24;95050.88;;;30.91
42119;BMP280;27783;42.782;23.274;2023-07-31T12:10:53;95057.75;;;31.47
42119;BMP280;27783;42.782;23.274;2023-07-31T12:13:24;95055.53;;;31.33
42119;BMP280;27783;42.782;23.274;2023-07-31T12:15:56;95047.84;;;31.82
42119;BMP280;27783;42.782;23.274;2023-07-31T12:18:23;95042.34;;;31.37
42119;BMP280;27783;42.782;23.274;2023-07-31T12:20:54;95039.78;;;31.27
42119;BMP280;27783;42.782;23.274;2023-07-31T12:23:25;95043.75;;;31.51
42119;BMP280;27783;42.782;23.274;2023-07-31T12:28:34;95043.34;;;31.09
42119;BMP280;27783;42.782;23.274;2023-07-31T12:31:00;95042.41;;;31.45
42119;BMP280;27783;42.782;23.274;2023-07-31T12:33:31;95036.44;;;30.52
42119;BMP280;27783;42.782;23.274;2023-07-31T12:35:58;95042.56;;;30.71
42119;BMP280;27783;42.782;23.274;2023-07-31T12:38:23;95035.75;;;30.77
42119;BMP280;27783;42.782;23.274;2023-07-31T12:40:49;95043.16;;;30.51
42119;BMP280;27783;42.782;23.274;2023-07-31T12:43:14;95039.19;;;29.86
42119;BMP280;27783;42.782;23.274;2023-07-31T12:45:39;95047.72;;;30.44
42119;BMP280;27783;42.782;23.274;2023-07-31T12:48:05;95037.97;;;30.17
42119;BMP280;27783;42.782;23.274;2023-07-31T12:50:30;95029.63;;;31.27
42119;BMP280;27783;42.782;23.274;2023-07-31T12:52:57;95022.09;;;31.20
42119;BMP280;27783;42.782;23.274;2023-07-31T12:55:22;95028.16;;;30.88
42119;BMP280;27783;42.782;23.274;2023-07-31T12:57:48;95023.97;;;31.12
42119;BMP280;27783;42.782;23.274;2023-07-31T13:00:14;95023.84;;;30.93
42119;BMP280;27783;42.782;23.274;2023-07-31T13:02:39;95016.97;;;31.17
42119;BMP280;27783;42.782;23.274;2023-07-31T13:05:05;95018.94;;;31.04
42119;BMP280;27783;42.782;23.274;2023-07-31T13:07:31;95022.59;;;31.06
42119;BMP280;27783;42.782;23.274;2023-07-31T13:09:56;95005.47;;;31.69
42119;BMP280;27783;42.782;23.274;2023-07-31T13:12:28;95016.34;;;31.11
42119;BMP280;27783;42.782;23.274;2023-07-31T13:14:53;95012.44;;;31.19
42119;BMP280;27783;42.782;23.274;2023-07-31T13:17:19;95022.06;;;30.39
42119;BMP280;27783;42.782;23.274;2023-07-31T13:19:45;95020.56;;;30.26
42119;BMP280;27783;42.782;23.274;2023-07-31T13:22:10;95022.91;;;29.86
42119;BMP280;27783;42.782;23.274;2023-07-31T13:24:35;95012.00;;;30.65
42119;BMP280;27783;42.782;23.274;2023-07-31T13:27:01;95016.81;;;30.11
42119;BMP280;27783;42.782;23.274;2023-07-31T13:29:26;95017.09;;;30.25
42119;BMP280;27783;42.782;23.274;2023-07-31T13:31:52;95014.44;;;30.81
42119;BMP280;27783;42.782;23.274;2023-07-31T13:34:18;95012.69;;;30.22
42119;BMP280;27783;42.782;23.274;2023-07-31T13:36:43;95004.16;;;30.13
42119;BMP280;27783;42.782;23.274;2023-07-31T13:39:09;95016.22;;;30.35
42119;BMP280;27783;42.782;23.274;2023-07-31T13:41:35;95005.81;;;30.64
42119;BMP280;27783;42.782;23.274;2023-07-31T13:44:01;95005.53;;;30.37
42119;BMP280;27783;42.782;23.274;2023-07-31T13:46:27;95010.16;;;29.94
42119;BMP280;27783;42.782;23.274;2023-07-31T13:48:53;95006.72;;;30.54
42119;BMP280;27783;42.782;23.274;2023-07-31T13:51:23;95011.53;;;30.18
42119;BMP280;27783;42.782;23.274;2023-07-31T13:53:48;95010.31;;;29.65
42119;BMP280;27783;42.782;23.274;2023-07-31T13:56:14;95009.66;;;29.95
42119;BMP280;27783;42.782;23.274;2023-07-31T13:58:39;95007.00;;;29.90
42119;BMP280;27783;42.782;23.274;2023-07-31T14:01:05;95016.13;;;30.53
42119;BMP280;27783;42.782;23.274;2023-07-31T14:03:30;94997.84;;;30.66
42119;BMP280;27783;42.782;23.274;2023-07-31T14:05:56;95004.72;;;30.42
42119;BMP280;27783;42.782;23.274;2023-07-31T14:08:22;95007.28;;;29.50
42119;BMP280;27783;42.782;23.274;2023-07-31T14:10:47;95011.84;;;29.01